createdAt,value
2018-12-14T00:08:40.333Z,1014.8
2018-12-14T00:18:54.146Z,1014.8
2018-12-14T00:29:07.808Z,1014.9
2018-12-14T00:39:21.878Z,1015
2018-12-14T00:49:37.278Z,1015.1
2018-12-14T00:59:51.308Z,1015.1
2018-12-14T01:10:06.894Z,1015.1
2018-12-14T01:20:22.389Z,1015.2
2018-12-14T01:30:36.117Z,1015.2
2018-12-14T01:40:50.218Z,1015.2
2018-12-14T01:51:03.976Z,1015.2
2018-12-14T02:01:17.769Z,1015.1
2018-12-14T02:11:31.423Z,1015.1
2018-12-14T02:21:45.619Z,1015.1
2018-12-14T02:31:59.677Z,1015.1
2018-12-14T02:42:14.674Z,1015
2018-12-14T02:52:28.722Z,1015.1
2018-12-14T03:02:44.041Z,1015.1
2018-12-14T03:12:57.710Z,1015
2018-12-14T03:23:11.948Z,1014.9
2018-12-14T03:33:26.701Z,1014.9
2018-12-14T03:43:41.743Z,1014.8
2018-12-14T03:53:56.064Z,1014.8
2018-12-14T04:04:11.051Z,1014.8
2018-12-14T04:14:26.461Z,1014.8
2018-12-14T04:24:41.871Z,1014.8
2018-12-14T04:34:55.482Z,1014.8
2018-12-14T04:45:10.044Z,1014.7
2018-12-14T04:55:23.968Z,1014.9
2018-12-14T05:05:37.597Z,1014.9
2018-12-14T05:15:51.364Z,1014.8
2018-12-14T05:26:06.030Z,1014.9
2018-12-14T05:36:20.802Z,1015
2018-12-14T05:46:35.078Z,1015
2018-12-14T05:56:49.649Z,1015.1
2018-12-14T06:07:03.672Z,1015.1
2018-12-14T06:17:18.475Z,1015.1
2018-12-14T06:27:32.435Z,1015.3
2018-12-14T06:37:47.714Z,1015.4
2018-12-14T06:48:02.221Z,1015.5
2018-12-14T06:58:17.695Z,1015.6
2018-12-14T07:08:31.587Z,1015.7
2018-12-14T07:18:45.341Z,1015.9
2018-12-14T07:29:00.736Z,1015.9
2018-12-14T07:39:15.043Z,1016
2018-12-14T07:49:29.901Z,1016.2
2018-12-14T07:59:44.838Z,1016.2
2018-12-14T08:09:59.235Z,1016.4
2018-12-14T08:20:13.781Z,1016.4
2018-12-14T08:30:28.209Z,1016.5
2018-12-14T08:40:43.154Z,1016.6
2018-12-14T08:50:58.271Z,1016.7
2018-12-14T09:01:13.913Z,1016.7
2018-12-14T09:11:27.716Z,1016.8
2018-12-14T09:21:43.184Z,1017
2018-12-14T09:31:58.828Z,1017
2018-12-14T09:42:12.589Z,1016.9
2018-12-14T09:52:27.726Z,1017
2018-12-14T10:02:42.576Z,1017
2018-12-14T10:12:57.926Z,1016.9
2018-12-14T10:23:12.889Z,1016.9
2018-12-14T10:33:26.917Z,1016.8
2018-12-14T10:43:41.220Z,1016.7
2018-12-14T10:53:56.437Z,1016.8
2018-12-14T11:04:11.972Z,1016.7
2018-12-14T11:14:27.118Z,1016.7
2018-12-14T11:24:42.013Z,1016.6
2018-12-14T11:34:57.177Z,1016.7
2018-12-14T11:45:11.722Z,1016.7
2018-12-14T11:55:26.204Z,1016.7
2018-12-14T12:05:41.879Z,1016.6
2018-12-14T12:15:55.810Z,1016.6
2018-12-14T12:26:10.284Z,1016.6
2018-12-14T12:36:25.636Z,1016.5
2018-12-14T12:46:39.275Z,1016.6
2018-12-14T12:56:54.164Z,1016.6
2018-12-14T13:07:09.198Z,1016.6
2018-12-14T13:17:24.343Z,1016.5
2018-12-14T13:27:38.174Z,1016.6
2018-12-14T13:37:52.172Z,1016.6
2018-12-14T13:48:06.506Z,1016.6
2018-12-14T13:58:21.024Z,1016.7
2018-12-14T14:08:36.089Z,1016.8
2018-12-14T14:18:50.095Z,1016.9
2018-12-14T14:29:03.792Z,1017.1
2018-12-14T14:39:17.654Z,1017.2
2018-12-14T14:49:31.786Z,1017.2
2018-12-14T14:59:45.526Z,1017.3
2018-12-14T15:09:59.440Z,1017.3
2018-12-14T15:20:14.301Z,1017.3
2018-12-14T15:30:29.489Z,1017.4
2018-12-14T15:40:43.979Z,1017.4
2018-12-14T15:50:58.216Z,1017.4
2018-12-14T16:01:12.717Z,1017.5
2018-12-14T16:11:26.503Z,1017.5
2018-12-14T16:21:41.686Z,1017.6
2018-12-14T16:31:56.388Z,1017.6
2018-12-14T16:42:11.046Z,1017.7
2018-12-14T16:52:26.082Z,1017.7
2018-12-14T17:02:41.201Z,1017.7
2018-12-14T17:12:56.700Z,1017.8
2018-12-14T17:23:10.794Z,1017.7
2018-12-14T17:33:25.997Z,1017.8
2018-12-14T17:43:40.217Z,1017.9
2018-12-14T17:53:54.585Z,1018
2018-12-14T18:04:09.038Z,1018
2018-12-14T18:14:23.863Z,1018.1
2018-12-14T18:24:38.185Z,1018.2
2018-12-14T18:34:53.100Z,1018.3
2018-12-14T18:45:08.350Z,1018.3
2018-12-14T18:55:22.928Z,1018.5
2018-12-14T19:05:36.731Z,1018.7
2018-12-14T19:15:51.568Z,1018.7
2018-12-14T19:26:06.930Z,1018.8
2018-12-14T19:36:20.781Z,1018.9
2018-12-14T19:46:36.331Z,1018.9
2018-12-14T19:56:51.026Z,1018.8
2018-12-14T20:07:05.016Z,1018.8
2018-12-14T20:17:18.716Z,1018.8
2018-12-14T20:27:33.549Z,1018.8
2018-12-14T20:37:47.710Z,1018.8
2018-12-14T20:48:01.908Z,1018.8
2018-12-14T20:58:15.699Z,1018.8
2018-12-14T21:08:29.452Z,1018.8
2018-12-14T21:18:44.136Z,1018.7
2018-12-14T21:28:58.563Z,1018.7
2018-12-14T21:39:13.881Z,1018.6
2018-12-14T21:49:29.023Z,1018.7
2018-12-14T21:59:42.636Z,1018.6
2018-12-14T22:09:57.436Z,1018.5
2018-12-14T22:20:12.162Z,1018.5
2018-12-14T22:30:26.856Z,1018.6
2018-12-14T22:40:41.538Z,1018.5
2018-12-14T22:50:57.034Z,1018.4
2018-12-14T23:01:12.059Z,1018.4
2018-12-14T23:11:27.187Z,1018.4
2018-12-14T23:21:41.695Z,1018.4
2018-12-14T23:31:56.421Z,1018.4
2018-12-14T23:42:11.092Z,1018.5
2018-12-14T23:52:25.458Z,1018.5
